CPX231 Details

Departure: Phoenix Sky Harbor International Airport (KPHX)
Arrival: Chicago/Rockford International Airport (KRFD) at N/A
Route: BROAK1 MAXXO ACH J231 LBL J19 ICT J26 IRK J232 MZV PLL
Notes:


Current Weather Information
KPHX 230751Z 09005KT 10SM SCT250 21/01 A2992 RMK AO2 SLP115 T02060011
KRFD 230754Z 22008KT 10SM CLR 06/M01 A2983 RMK AO2 SLP106 T00561006